sensor_id;sensor_type;location;lat;lon;timestamp;P1;durP1;ratioP1;P2;durP2;ratioP2
53927;SDS011;39837;47.630;18.822;2023-04-25T00:00:11;1.65;;;1.65;;
53927;SDS011;39837;47.630;18.822;2023-04-25T00:02:55;1.70;;;1.70;;
53927;SDS011;39837;47.630;18.822;2023-04-25T00:05:40;1.90;;;1.80;;
53927;SDS011;39837;47.630;18.822;2023-04-25T00:08:24;1.70;;;1.60;;
53927;SDS011;39837;47.630;18.822;2023-04-25T00:11:08;1.80;;;1.70;;
53927;SDS011;39837;47.630;18.822;2023-04-25T00:13:52;2.15;;;2.10;;
53927;SDS011;39837;47.630;18.822;2023-04-25T00:16:37;2.38;;;2.05;;
53927;SDS011;39837;47.630;18.822;2023-04-25T00:19:22;2.03;;;1.92;;
53927;SDS011;39837;47.630;18.822;2023-04-25T00:22:06;1.63;;;1.63;;
53927;SDS011;39837;47.630;18.822;2023-04-25T00:24:51;2.58;;;2.47;;
53927;SDS011;39837;47.630;18.822;2023-04-25T00:27:37;2.15;;;2.08;;
53927;SDS011;39837;47.630;18.822;2023-04-25T00:30:22;1.85;;;1.83;;
53927;SDS011;39837;47.630;18.822;2023-04-25T00:33:06;1.58;;;1.58;;
53927;SDS011;39837;47.630;18.822;2023-04-25T00:35:50;1.63;;;1.63;;
53927;SDS011;39837;47.630;18.822;2023-04-25T00:38:34;2.13;;;2.03;;
53927;SDS011;39837;47.630;18.822;2023-04-25T00:41:19;1.52;;;1.52;;
53927;SDS011;39837;47.630;18.822;2023-04-25T00:44:03;2.17;;;2.08;;
53927;SDS011;39837;47.630;18.822;2023-04-25T00:46:48;1.33;;;1.33;;
53927;SDS011;39837;47.630;18.822;2023-04-25T00:49:34;2.47;;;2.38;;
53927;SDS011;39837;47.630;18.822;2023-04-25T00:52:19;2.67;;;2.45;;
53927;SDS011;39837;47.630;18.822;2023-04-25T00:55:03;1.95;;;1.85;;
53927;SDS011;39837;47.630;18.822;2023-04-25T00:57:48;2.50;;;2.38;;
53927;SDS011;39837;47.630;18.822;2023-04-25T01:00:33;2.25;;;2.15;;
53927;SDS011;39837;47.630;18.822;2023-04-25T01:03:18;1.65;;;1.65;;
53927;SDS011;39837;47.630;18.822;2023-04-25T01:06:06;2.22;;;2.13;;
53927;SDS011;39837;47.630;18.822;2023-04-25T01:08:51;1.88;;;1.77;;
53927;SDS011;39837;47.630;18.822;2023-04-25T01:11:35;2.33;;;2.17;;
53927;SDS011;39837;47.630;18.822;2023-04-25T01:14:20;2.08;;;1.98;;
53927;SDS011;39837;47.630;18.822;2023-04-25T01:17:04;2.13;;;2.03;;
53927;SDS011;39837;47.630;18.822;2023-04-25T01:19:51;2.30;;;2.20;;
53927;SDS011;39837;47.630;18.822;2023-04-25T01:22:35;2.15;;;2.05;;
53927;SDS011;39837;47.630;18.822;2023-04-25T01:25:19;1.80;;;1.80;;
53927;SDS011;39837;47.630;18.822;2023-04-25T01:28:04;2.60;;;2.40;;
53927;SDS011;39837;47.630;18.822;2023-04-25T01:30:48;1.70;;;1.63;;
53927;SDS011;39837;47.630;18.822;2023-04-25T01:33:32;2.70;;;2.33;;
53927;SDS011;39837;47.630;18.822;2023-04-25T01:36:16;2.55;;;2.45;;
53927;SDS011;39837;47.630;18.822;2023-04-25T01:39:00;2.13;;;2.03;;
53927;SDS011;39837;47.630;18.822;2023-04-25T01:41:45;2.15;;;1.98;;
53927;SDS011;39837;47.630;18.822;2023-04-25T01:44:29;2.33;;;2.22;;
53927;SDS011;39837;47.630;18.822;2023-04-25T01:47:13;2.47;;;2.35;;
53927;SDS011;39837;47.630;18.822;2023-04-25T01:49:57;2.80;;;2.30;;
53927;SDS011;39837;47.630;18.822;2023-04-25T01:52:41;2.45;;;2.33;;
53927;SDS011;39837;47.630;18.822;2023-04-25T01:55:25;2.17;;;2.00;;
53927;SDS011;39837;47.630;18.822;2023-04-25T01:58:09;1.88;;;1.85;;
53927;SDS011;39837;47.630;18.822;2023-04-25T02:00:56;2.80;;;2.58;;
53927;SDS011;39837;47.630;18.822;2023-04-25T02:03:40;2.10;;;2.00;;
53927;SDS011;39837;47.630;18.822;2023-04-25T02:06:24;2.30;;;2.10;;
53927;SDS011;39837;47.630;18.822;2023-04-25T02:09:08;2.50;;;2.42;;
53927;SDS011;39837;47.630;18.822;2023-04-25T02:11:52;2.47;;;2.38;;
53927;SDS011;39837;47.630;18.822;2023-04-25T02:14:36;2.13;;;1.92;;
53927;SDS011;39837;47.630;18.822;2023-04-25T02:17:20;2.58;;;2.45;;
53927;SDS011;39837;47.630;18.822;2023-04-25T02:20:05;2.20;;;2.10;;
53927;SDS011;39837;47.630;18.822;2023-04-25T02:22:50;2.63;;;2.53;;
53927;SDS011;39837;47.630;18.822;2023-04-25T02:25:34;1.85;;;1.85;;
53927;SDS011;39837;47.630;18.822;2023-04-25T02:28:18;1.95;;;1.90;;
53927;SDS011;39837;47.630;18.822;2023-04-25T02:31:02;1.83;;;1.77;;
53927;SDS011;39837;47.630;18.822;2023-04-25T02:33:47;1.63;;;1.63;;
53927;SDS011;39837;47.630;18.822;2023-04-25T02:36:31;2.47;;;2.28;;
53927;SDS011;39837;47.630;18.822;2023-04-25T02:39:17;1.98;;;1.88;;
53927;SDS011;39837;47.630;18.822;2023-04-25T02:42:01;2.53;;;2.35;;
53927;SDS011;39837;47.630;18.822;2023-04-25T02:44:46;2.40;;;2.30;;
53927;SDS011;39837;47.630;18.822;2023-04-25T02:47:30;3.60;;;2.45;;
53927;SDS011;39837;47.630;18.822;2023-04-25T02:50:14;6.40;;;2.03;;
53927;SDS011;39837;47.630;18.822;2023-04-25T02:52:58;2.08;;;1.90;;
53927;SDS011;39837;47.630;18.822;2023-04-25T02:55:42;7.57;;;2.33;;
53927;SDS011;39837;47.630;18.822;2023-04-25T02:58:26;2.40;;;2.15;;
53927;SDS011;39837;47.630;18.822;2023-04-25T03:01:11;2.40;;;2.30;;
53927;SDS011;39837;47.630;18.822;2023-04-25T03:03:54;2.70;;;1.80;;
53927;SDS011;39837;47.630;18.822;2023-04-25T03:06:38;2.17;;;2.08;;
53927;SDS011;39837;47.630;18.822;2023-04-25T03:09:23;2.20;;;2.13;;
53927;SDS011;39837;47.630;18.822;2023-04-25T03:12:07;2.20;;;2.10;;
53927;SDS011;39837;47.630;18.822;2023-04-25T03:14:51;2.15;;;2.08;;
53927;SDS011;39837;47.630;18.822;2023-04-25T03:17:35;2.45;;;2.25;;
53927;SDS011;39837;47.630;18.822;2023-04-25T03:20:19;2.78;;;2.65;;
53927;SDS011;39837;47.630;18.822;2023-04-25T03:23:03;2.10;;;2.05;;
53927;SDS011;39837;47.630;18.822;2023-04-25T03:25:47;1.73;;;1.67;;
53927;SDS011;39837;47.630;18.822;2023-04-25T03:28:31;2.53;;;2.38;;
53927;SDS011;39837;47.630;18.822;2023-04-25T03:31:15;4.63;;;2.17;;
53927;SDS011;39837;47.630;18.822;2023-04-25T03:34:00;2.08;;;1.98;;
53927;SDS011;39837;47.630;18.822;2023-04-25T03:36:43;2.75;;;2.60;;
53927;SDS011;39837;47.630;18.822;2023-04-25T03:39:27;3.38;;;2.05;;
53927;SDS011;39837;47.630;18.822;2023-04-25T03:42:11;2.10;;;2.00;;
53927;SDS011;39837;47.630;18.822;2023-04-25T03:44:55;3.53;;;1.75;;
53927;SDS011;39837;47.630;18.822;2023-04-25T03:47:39;2.17;;;2.08;;
53927;SDS011;39837;47.630;18.822;2023-04-25T03:50:23;1.95;;;1.88;;
53927;SDS011;39837;47.630;18.822;2023-04-25T03:53:07;7.60;;;2.38;;
53927;SDS011;39837;47.630;18.822;2023-04-25T03:55:51;2.22;;;2.13;;
53927;SDS011;39837;47.630;18.822;2023-04-25T03:58:35;3.10;;;2.83;;
53927;SDS011;39837;47.630;18.822;2023-04-25T04:01:19;2.25;;;2.10;;
53927;SDS011;39837;47.630;18.822;2023-04-25T04:04:04;2.17;;;2.10;;
53927;SDS011;39837;47.630;18.822;2023-04-25T04:06:48;2.08;;;1.98;;
53927;SDS011;39837;47.630;18.822;2023-04-25T04:09:32;1.83;;;1.83;;
53927;SDS011;39837;47.630;18.822;2023-04-25T04:12:16;3.20;;;1.88;;
53927;SDS011;39837;47.630;18.822;2023-04-25T04:15:01;1.98;;;1.98;;
53927;SDS011;39837;47.630;18.822;2023-04-25T04:17:48;2.47;;;2.28;;
53927;SDS011;39837;47.630;18.822;2023-04-25T04:20:32;3.38;;;2.15;;
53927;SDS011;39837;47.630;18.822;2023-04-25T04:23:16;1.65;;;1.65;;
53927;SDS011;39837;47.630;18.822;2023-04-25T04:26:00;2.10;;;2.00;;
53927;SDS011;39837;47.630;18.822;2023-04-25T04:28:44;1.67;;;1.67;;
53927;SDS011;39837;47.630;18.822;2023-04-25T04:31:28;2.72;;;2.53;;
53927;SDS011;39837;47.630;18.822;2023-04-25T04:34:13;2.00;;;1.90;;
53927;SDS011;39837;47.630;18.822;2023-04-25T04:39:43;2.40;;;2.05;;
53927;SDS011;39837;47.630;18.822;2023-04-25T04:42:28;2.70;;;2.60;;
53927;SDS011;39837;47.630;18.822;2023-04-25T04:45:12;3.90;;;2.83;;
53927;SDS011;39837;47.630;18.822;2023-04-25T04:47:57;2.65;;;2.55;;
53927;SDS011;39837;47.630;18.822;2023-04-25T04:50:42;2.58;;;2.47;;
53927;SDS011;39837;47.630;18.822;2023-04-25T04:53:28;2.47;;;2.35;;
53927;SDS011;39837;47.630;18.822;2023-04-25T04:56:12;2.17;;;2.08;;
53927;SDS011;39837;47.630;18.822;2023-04-25T04:58:56;2.63;;;2.53;;
53927;SDS011;39837;47.630;18.822;2023-04-25T05:01:43;9.70;;;4.13;;
53927;SDS011;39837;47.630;18.822;2023-04-25T05:04:27;3.42;;;2.70;;
53927;SDS011;39837;47.630;18.822;2023-04-25T05:07:11;2.72;;;2.63;;
53927;SDS011;39837;47.630;18.822;2023-04-25T05:09:54;2.55;;;2.40;;
53927;SDS011;39837;47.630;18.822;2023-04-25T05:12:39;2.15;;;2.08;;
53927;SDS011;39837;47.630;18.822;2023-04-25T05:15:22;3.30;;;3.10;;
53927;SDS011;39837;47.630;18.822;2023-04-25T05:18:06;2.67;;;2.35;;
53927;SDS011;39837;47.630;18.822;2023-04-25T05:20:50;2.25;;;2.15;;
53927;SDS011;39837;47.630;18.822;2023-04-25T05:23:34;3.10;;;2.80;;
53927;SDS011;39837;47.630;18.822;2023-04-25T05:26:19;2.60;;;2.50;;
53927;SDS011;39837;47.630;18.822;2023-04-25T05:29:04;2.40;;;2.30;;
53927;SDS011;39837;47.630;18.822;2023-04-25T05:31:49;2.65;;;2.47;;
53927;SDS011;39837;47.630;18.822;2023-04-25T05:34:33;2.65;;;2.53;;
53927;SDS011;39837;47.630;18.822;2023-04-25T05:37:17;4.63;;;2.60;;
53927;SDS011;39837;47.630;18.822;2023-04-25T05:40:01;2.90;;;2.70;;
53927;SDS011;39837;47.630;18.822;2023-04-25T05:42:50;3.22;;;3.03;;
53927;SDS011;39837;47.630;18.822;2023-04-25T05:45:34;2.72;;;2.53;;
53927;SDS011;39837;47.630;18.822;2023-04-25T05:48:18;2.17;;;2.08;;
53927;SDS011;39837;47.630;18.822;2023-04-25T05:51:02;3.65;;;3.30;;
53927;SDS011;39837;47.630;18.822;2023-04-25T05:53:46;2.25;;;2.15;;
53927;SDS011;39837;47.630;18.822;2023-04-25T05:56:30;3.33;;;3.17;;
53927;SDS011;39837;47.630;18.822;2023-04-25T05:59:14;2.97;;;2.80;;
53927;SDS011;39837;47.630;18.822;2023-04-25T06:01:58;3.15;;;2.95;;
53927;SDS011;39837;47.630;18.822;2023-04-25T06:04:43;2.22;;;2.13;;
53927;SDS011;39837;47.630;18.822;2023-04-25T06:07:26;2.97;;;2.38;;
53927;SDS011;39837;47.630;18.822;2023-04-25T06:10:10;3.67;;;2.75;;
53927;SDS011;39837;47.630;18.822;2023-04-25T06:12:54;2.53;;;2.13;;
53927;SDS011;39837;47.630;18.822;2023-04-25T06:15:38;3.53;;;3.20;;
53927;SDS011;39837;47.630;18.822;2023-04-25T06:18:22;3.05;;;2.85;;
53927;SDS011;39837;47.630;18.822;2023-04-25T06:21:06;4.03;;;3.55;;
53927;SDS011;39837;47.630;18.822;2023-04-25T06:23:50;5.47;;;3.38;;
53927;SDS011;39837;47.630;18.822;2023-04-25T06:26:34;2.80;;;2.70;;
53927;SDS011;39837;47.630;18.822;2023-04-25T06:29:18;2.45;;;2.35;;
53927;SDS011;39837;47.630;18.822;2023-04-25T06:32:03;4.80;;;2.92;;
53927;SDS011;39837;47.630;18.822;2023-04-25T06:34:47;2.78;;;2.63;;
53927;SDS011;39837;47.630;18.822;2023-04-25T06:37:31;2.70;;;2.60;;
53927;SDS011;39837;47.630;18.822;2023-04-25T06:40:16;3.00;;;2.80;;
53927;SDS011;39837;47.630;18.822;2023-04-25T06:43:01;3.38;;;3.17;;
53927;SDS011;39837;47.630;18.822;2023-04-25T06:45:45;2.78;;;2.67;;
53927;SDS011;39837;47.630;18.822;2023-04-25T06:48:29;2.65;;;2.55;;
53927;SDS011;39837;47.630;18.822;2023-04-25T06:51:14;3.03;;;2.83;;
53927;SDS011;39837;47.630;18.822;2023-04-25T06:53:58;2.17;;;2.08;;
53927;SDS011;39837;47.630;18.822;2023-04-25T06:56:42;2.90;;;2.75;;
53927;SDS011;39837;47.630;18.822;2023-04-25T06:59:26;2.88;;;2.78;;
53927;SDS011;39837;47.630;18.822;2023-04-25T07:02:11;2.33;;;2.25;;
53927;SDS011;39837;47.630;18.822;2023-04-25T07:04:55;2.88;;;2.78;;
53927;SDS011;39837;47.630;18.822;2023-04-25T07:07:43;2.35;;;2.25;;
53927;SDS011;39837;47.630;18.822;2023-04-25T07:10:27;2.95;;;2.78;;
53927;SDS011;39837;47.630;18.822;2023-04-25T07:13:11;2.10;;;2.10;;
53927;SDS011;39837;47.630;18.822;2023-04-25T07:15:55;3.22;;;2.97;;
53927;SDS011;39837;47.630;18.822;2023-04-25T07:18:40;2.47;;;2.38;;
53927;SDS011;39837;47.630;18.822;2023-04-25T07:21:24;2.78;;;2.67;;
53927;SDS011;39837;47.630;18.822;2023-04-25T07:24:08;2.83;;;2.63;;
53927;SDS011;39837;47.630;18.822;2023-04-25T07:26:52;2.38;;;2.33;;
53927;SDS011;39837;47.630;18.822;2023-04-25T07:29:36;2.95;;;2.75;;
53927;SDS011;39837;47.630;18.822;2023-04-25T07:32:20;3.25;;;3.15;;
53927;SDS011;39837;47.630;18.822;2023-04-25T07:35:04;2.72;;;2.58;;
53927;SDS011;39837;47.630;18.822;2023-04-25T07:37:50;2.95;;;2.85;;
53927;SDS011;39837;47.630;18.822;2023-04-25T07:40:34;2.80;;;2.70;;
53927;SDS011;39837;47.630;18.822;2023-04-25T07:43:18;3.03;;;2.85;;
53927;SDS011;39837;47.630;18.822;2023-04-25T07:46:03;3.20;;;2.90;;
53927;SDS011;39837;47.630;18.822;2023-04-25T07:48:47;2.45;;;2.35;;
53927;SDS011;39837;47.630;18.822;2023-04-25T07:51:31;2.05;;;2.05;;
53927;SDS011;39837;47.630;18.822;2023-04-25T07:54:17;4.03;;;2.67;;
53927;SDS011;39837;47.630;18.822;2023-04-25T07:57:01;3.30;;;2.33;;
53927;SDS011;39837;47.630;18.822;2023-04-25T07:59:46;2.95;;;2.45;;
53927;SDS011;39837;47.630;18.822;2023-04-25T08:02:30;2.90;;;2.70;;
53927;SDS011;39837;47.630;18.822;2023-04-25T08:05:14;2.92;;;2.65;;
53927;SDS011;39837;47.630;18.822;2023-04-25T08:07:58;2.95;;;2.85;;
53927;SDS011;39837;47.630;18.822;2023-04-25T08:10:42;3.58;;;3.38;;
53927;SDS011;39837;47.630;18.822;2023-04-25T08:13:27;2.92;;;2.78;;
53927;SDS011;39837;47.630;18.822;2023-04-25T08:16:11;2.58;;;2.47;;
53927;SDS011;39837;47.630;18.822;2023-04-25T08:18:55;2.55;;;2.45;;
53927;SDS011;39837;47.630;18.822;2023-04-25T08:21:39;2.10;;;2.10;;
53927;SDS011;39837;47.630;18.822;2023-04-25T08:24:23;2.78;;;2.67;;
53927;SDS011;39837;47.630;18.822;2023-04-25T08:27:07;2.67;;;2.58;;
53927;SDS011;39837;47.630;18.822;2023-04-25T08:29:51;2.53;;;2.33;;
53927;SDS011;39837;47.630;18.822;2023-04-25T08:32:36;14.85;;;8.88;;
53927;SDS011;39837;47.630;18.822;2023-04-25T08:35:23;8.40;;;7.60;;
53927;SDS011;39837;47.630;18.822;2023-04-25T08:38:07;20.77;;;12.65;;
53927;SDS011;39837;47.630;18.822;2023-04-25T08:40:51;4.50;;;4.15;;
53927;SDS011;39837;47.630;18.822;2023-04-25T08:43:35;3.47;;;3.17;;
53927;SDS011;39837;47.630;18.822;2023-04-25T08:46:20;3.47;;;3.22;;
53927;SDS011;39837;47.630;18.822;2023-04-25T08:49:04;3.13;;;2.95;;
53927;SDS011;39837;47.630;18.822;2023-04-25T08:51:48;3.85;;;3.65;;
53927;SDS011;39837;47.630;18.822;2023-04-25T08:54:34;5.28;;;3.10;;
53927;SDS011;39837;47.630;18.822;2023-04-25T08:57:20;3.30;;;3.10;;
53927;SDS011;39837;47.630;18.822;2023-04-25T09:00:05;2.85;;;2.60;;
53927;SDS011;39837;47.630;18.822;2023-04-25T09:02:51;4.13;;;3.05;;
53927;SDS011;39837;47.630;18.822;2023-04-25T09:05:36;2.03;;;2.03;;
53927;SDS011;39837;47.630;18.822;2023-04-25T09:08:21;27.27;;;2.83;;
53927;SDS011;39837;47.630;18.822;2023-04-25T09:11:04;3.50;;;3.30;;
53927;SDS011;39837;47.630;18.822;2023-04-25T09:13:49;5.32;;;3.85;;
53927;SDS011;39837;47.630;18.822;2023-04-25T09:16:33;4.35;;;4.05;;
53927;SDS011;39837;47.630;18.822;2023-04-25T09:19:27;3.60;;;2.58;;
53927;SDS011;39837;47.630;18.822;2023-04-25T09:22:12;2.97;;;2.73;;
53927;SDS011;39837;47.630;18.822;2023-04-25T09:24:57;2.70;;;2.47;;
53927;SDS011;39837;47.630;18.822;2023-04-25T09:27:50;3.17;;;2.97;;
53927;SDS011;39837;47.630;18.822;2023-04-25T09:30:36;2.42;;;2.33;;
53927;SDS011;39837;47.630;18.822;2023-04-25T09:33:20;2.78;;;2.53;;
53927;SDS011;39837;47.630;18.822;2023-04-25T09:36:05;2.25;;;2.00;;
53927;SDS011;39837;47.630;18.822;2023-04-25T09:38:50;1.67;;;1.65;;
53927;SDS011;39837;47.630;18.822;2023-04-25T09:41:37;1.98;;;1.98;;
53927;SDS011;39837;47.630;18.822;2023-04-25T09:44:25;2.38;;;2.28;;
53927;SDS011;39837;47.630;18.822;2023-04-25T09:47:11;1.90;;;1.90;;
53927;SDS011;39837;47.630;18.822;2023-04-25T09:50:00;5.47;;;2.80;;
53927;SDS011;39837;47.630;18.822;2023-04-25T09:52:44;3.15;;;2.95;;
53927;SDS011;39837;47.630;18.822;2023-04-25T09:55:28;2.28;;;2.17;;
53927;SDS011;39837;47.630;18.822;2023-04-25T09:58:12;2.53;;;2.42;;
53927;SDS011;39837;47.630;18.822;2023-04-25T10:01:00;1.67;;;1.67;;
53927;SDS011;39837;47.630;18.822;2023-04-25T10:03:48;2.13;;;2.00;;
53927;SDS011;39837;47.630;18.822;2023-04-25T10:06:34;1.52;;;1.52;;
53927;SDS011;39837;47.630;18.822;2023-04-25T10:09:19;2.00;;;1.90;;
53927;SDS011;39837;47.630;18.822;2023-04-25T10:12:04;1.55;;;1.55;;
53927;SDS011;39837;47.630;18.822;2023-04-25T10:14:49;1.40;;;1.40;;
53927;SDS011;39837;47.630;18.822;2023-04-25T10:17:34;2.23;;;2.23;;
53927;SDS011;39837;47.630;18.822;2023-04-25T10:20:19;1.55;;;1.45;;
53927;SDS011;39837;47.630;18.822;2023-04-25T10:25:56;1.50;;;1.50;;
53927;SDS011;39837;47.630;18.822;2023-04-25T10:29:00;1.00;;;1.00;;
53927;SDS011;39837;47.630;18.822;2023-04-25T10:31:45;1.67;;;1.67;;
53927;SDS011;39837;47.630;18.822;2023-04-25T10:34:40;3.10;;;2.80;;
53927;SDS011;39837;47.630;18.822;2023-04-25T10:37:25;1.52;;;1.52;;
53927;SDS011;39837;47.630;18.822;2023-04-25T10:40:10;1.63;;;1.60;;
53927;SDS011;39837;47.630;18.822;2023-04-25T10:42:54;2.47;;;2.38;;
53927;SDS011;39837;47.630;18.822;2023-04-25T10:45:52;1.60;;;1.60;;
53927;SDS011;39837;47.630;18.822;2023-04-25T10:48:36;2.13;;;1.65;;
53927;SDS011;39837;47.630;18.822;2023-04-25T10:51:25;1.23;;;1.23;;
53927;SDS011;39837;47.630;18.822;2023-04-25T10:54:10;1.13;;;1.10;;
53927;SDS011;39837;47.630;18.822;2023-04-25T10:56:55;1.20;;;1.20;;
53927;SDS011;39837;47.630;18.822;2023-04-25T10:59:42;1.20;;;1.20;;
53927;SDS011;39837;47.630;18.822;2023-04-25T11:02:26;1.20;;;1.20;;
53927;SDS011;39837;47.630;18.822;2023-04-25T11:05:16;1.00;;;1.00;;
53927;SDS011;39837;47.630;18.822;2023-04-25T11:08:08;1.48;;;1.48;;
53927;SDS011;39837;47.630;18.822;2023-04-25T11:10:55;1.50;;;1.50;;
53927;SDS011;39837;47.630;18.822;2023-04-25T11:13:39;0.90;;;0.90;;
53927;SDS011;39837;47.630;18.822;2023-04-25T11:16:24;1.00;;;1.00;;
53927;SDS011;39837;47.630;18.822;2023-04-25T11:19:09;1.15;;;1.15;;
53927;SDS011;39837;47.630;18.822;2023-04-25T11:21:57;1.15;;;1.15;;
53927;SDS011;39837;47.630;18.822;2023-04-25T11:24:41;1.27;;;1.27;;
53927;SDS011;39837;47.630;18.822;2023-04-25T11:27:26;2.28;;;1.25;;
53927;SDS011;39837;47.630;18.822;2023-04-25T11:30:11;1.17;;;1.17;;
53927;SDS011;39837;47.630;18.822;2023-04-25T11:32:56;1.40;;;1.40;;
53927;SDS011;39837;47.630;18.822;2023-04-25T11:35:40;1.00;;;1.00;;
53927;SDS011;39837;47.630;18.822;2023-04-25T11:38:25;1.77;;;1.67;;
53927;SDS011;39837;47.630;18.822;2023-04-25T11:41:09;3.53;;;1.50;;
53927;SDS011;39837;47.630;18.822;2023-04-25T11:43:55;7.85;;;1.30;;
53927;SDS011;39837;47.630;18.822;2023-04-25T11:46:39;1.30;;;1.30;;
53927;SDS011;39837;47.630;18.822;2023-04-25T11:49:23;1.30;;;1.30;;
53927;SDS011;39837;47.630;18.822;2023-04-25T11:52:08;1.27;;;1.27;;
53927;SDS011;39837;47.630;18.822;2023-04-25T11:54:53;1.52;;;1.42;;
53927;SDS011;39837;47.630;18.822;2023-04-25T11:57:37;1.30;;;1.27;;
53927;SDS011;39837;47.630;18.822;2023-04-25T12:00:22;1.00;;;1.00;;
53927;SDS011;39837;47.630;18.822;2023-04-25T12:03:08;1.10;;;1.10;;
53927;SDS011;39837;47.630;18.822;2023-04-25T12:05:53;1.20;;;1.20;;
53927;SDS011;39837;47.630;18.822;2023-04-25T12:08:37;1.27;;;1.27;;
53927;SDS011;39837;47.630;18.822;2023-04-25T12:11:21;4.38;;;1.40;;
53927;SDS011;39837;47.630;18.822;2023-04-25T12:14:05;1.52;;;1.52;;
53927;SDS011;39837;47.630;18.822;2023-04-25T12:16:49;1.50;;;1.40;;
53927;SDS011;39837;47.630;18.822;2023-04-25T12:19:35;1.33;;;1.33;;
53927;SDS011;39837;47.630;18.822;2023-04-25T12:22:23;1.13;;;1.13;;
53927;SDS011;39837;47.630;18.822;2023-04-25T12:25:08;1.70;;;1.10;;
53927;SDS011;39837;47.630;18.822;2023-04-25T12:27:52;1.05;;;1.05;;
53927;SDS011;39837;47.630;18.822;2023-04-25T12:30:56;1.13;;;1.13;;
53927;SDS011;39837;47.630;18.822;2023-04-25T12:33:41;1.30;;;1.30;;
53927;SDS011;39837;47.630;18.822;2023-04-25T12:36:27;1.52;;;1.52;;
53927;SDS011;39837;47.630;18.822;2023-04-25T12:39:17;1.50;;;1.40;;
53927;SDS011;39837;47.630;18.822;2023-04-25T12:42:03;1.30;;;1.30;;
53927;SDS011;39837;47.630;18.822;2023-04-25T12:44:47;1.50;;;1.50;;
53927;SDS011;39837;47.630;18.822;2023-04-25T12:47:30;1.25;;;1.25;;
53927;SDS011;39837;47.630;18.822;2023-04-25T12:50:15;1.27;;;1.27;;
53927;SDS011;39837;47.630;18.822;2023-04-25T12:52:59;1.58;;;1.42;;
53927;SDS011;39837;47.630;18.822;2023-04-25T12:55:43;1.65;;;1.55;;
53927;SDS011;39837;47.630;18.822;2023-04-25T12:58:29;1.45;;;1.45;;
53927;SDS011;39837;47.630;18.822;2023-04-25T13:01:14;1.10;;;1.10;;
53927;SDS011;39837;47.630;18.822;2023-04-25T13:03:58;1.10;;;1.10;;
53927;SDS011;39837;47.630;18.822;2023-04-25T13:06:42;1.25;;;1.25;;
53927;SDS011;39837;47.630;18.822;2023-04-25T13:09:26;1.30;;;1.30;;
53927;SDS011;39837;47.630;18.822;2023-04-25T13:12:10;1.73;;;1.58;;
53927;SDS011;39837;47.630;18.822;2023-04-25T13:14:54;1.27;;;1.17;;
53927;SDS011;39837;47.630;18.822;2023-04-25T13:17:38;1.10;;;1.10;;
53927;SDS011;39837;47.630;18.822;2023-04-25T13:20:22;1.02;;;1.02;;
53927;SDS011;39837;47.630;18.822;2023-04-25T13:23:06;1.15;;;1.15;;
53927;SDS011;39837;47.630;18.822;2023-04-25T13:25:50;1.25;;;1.25;;
53927;SDS011;39837;47.630;18.822;2023-04-25T13:28:34;1.10;;;1.10;;
53927;SDS011;39837;47.630;18.822;2023-04-25T13:31:18;1.50;;;1.50;;
53927;SDS011;39837;47.630;18.822;2023-04-25T13:34:02;0.75;;;0.75;;
53927;SDS011;39837;47.630;18.822;2023-04-25T13:36:47;1.40;;;1.40;;
53927;SDS011;39837;47.630;18.822;2023-04-25T13:39:31;0.95;;;0.95;;
53927;SDS011;39837;47.630;18.822;2023-04-25T13:42:15;4.15;;;1.63;;
53927;SDS011;39837;47.630;18.822;2023-04-25T13:44:59;1.50;;;1.40;;
53927;SDS011;39837;47.630;18.822;2023-04-25T13:47:43;1.13;;;1.13;;
53927;SDS011;39837;47.630;18.822;2023-04-25T13:50:27;10.85;;;1.55;;
53927;SDS011;39837;47.630;18.822;2023-04-25T13:53:11;1.15;;;1.15;;
53927;SDS011;39837;47.630;18.822;2023-04-25T13:55:55;1.02;;;1.02;;
53927;SDS011;39837;47.630;18.822;2023-04-25T13:58:39;6.72;;;1.50;;
53927;SDS011;39837;47.630;18.822;2023-04-25T14:01:23;1.08;;;1.05;;
53927;SDS011;39837;47.630;18.822;2023-04-25T14:04:08;1.20;;;1.20;;
53927;SDS011;39837;47.630;18.822;2023-04-25T14:06:53;4.80;;;1.40;;
53927;SDS011;39837;47.630;18.822;2023-04-25T14:09:37;1.98;;;1.60;;
53927;SDS011;39837;47.630;18.822;2023-04-25T14:12:21;1.13;;;1.13;;
53927;SDS011;39837;47.630;18.822;2023-04-25T14:15:05;1.65;;;1.55;;
53927;SDS011;39837;47.630;18.822;2023-04-25T14:17:50;1.40;;;1.40;;
53927;SDS011;39837;47.630;18.822;2023-04-25T14:20:34;1.50;;;1.50;;
53927;SDS011;39837;47.630;18.822;2023-04-25T14:23:18;1.95;;;1.83;;
53927;SDS011;39837;47.630;18.822;2023-04-25T14:26:02;1.50;;;1.40;;
53927;SDS011;39837;47.630;18.822;2023-04-25T14:28:46;1.40;;;1.40;;
53927;SDS011;39837;47.630;18.822;2023-04-25T14:31:30;1.40;;;1.40;;
53927;SDS011;39837;47.630;18.822;2023-04-25T14:34:15;1.50;;;1.50;;
53927;SDS011;39837;47.630;18.822;2023-04-25T14:36:59;1.40;;;1.40;;
53927;SDS011;39837;47.630;18.822;2023-04-25T14:39:43;1.00;;;1.00;;
53927;SDS011;39837;47.630;18.822;2023-04-25T14:42:27;2.00;;;1.80;;
53927;SDS011;39837;47.630;18.822;2023-04-25T14:45:11;12.45;;;1.48;;
53927;SDS011;39837;47.630;18.822;2023-04-25T14:47:55;1.50;;;1.40;;
53927;SDS011;39837;47.630;18.822;2023-04-25T14:50:39;2.05;;;1.20;;
53927;SDS011;39837;47.630;18.822;2023-04-25T14:53:23;1.17;;;1.10;;
53927;SDS011;39837;47.630;18.822;2023-04-25T14:56:07;1.15;;;1.15;;
53927;SDS011;39837;47.630;18.822;2023-04-25T14:58:52;1.00;;;1.00;;
53927;SDS011;39837;47.630;18.822;2023-04-25T15:01:36;4.03;;;1.40;;
53927;SDS011;39837;47.630;18.822;2023-04-25T15:04:20;2.78;;;1.77;;
53927;SDS011;39837;47.630;18.822;2023-04-25T15:07:05;1.30;;;1.27;;
53927;SDS011;39837;47.630;18.822;2023-04-25T15:09:49;1.95;;;1.85;;
53927;SDS011;39837;47.630;18.822;2023-04-25T15:12:33;1.50;;;1.45;;
53927;SDS011;39837;47.630;18.822;2023-04-25T15:15:17;1.30;;;1.30;;
53927;SDS011;39837;47.630;18.822;2023-04-25T15:18:01;2.42;;;1.63;;
53927;SDS011;39837;47.630;18.822;2023-04-25T15:20:46;2.22;;;2.13;;
53927;SDS011;39837;47.630;18.822;2023-04-25T15:23:30;2.08;;;1.88;;
53927;SDS011;39837;47.630;18.822;2023-04-25T15:26:14;1.70;;;1.70;;
53927;SDS011;39837;47.630;18.822;2023-04-25T15:28:59;2.38;;;2.28;;
53927;SDS011;39837;47.630;18.822;2023-04-25T15:31:43;2.15;;;2.10;;
53927;SDS011;39837;47.630;18.822;2023-04-25T15:34:27;1.80;;;1.65;;
53927;SDS011;39837;47.630;18.822;2023-04-25T15:37:11;2.88;;;2.08;;
53927;SDS011;39837;47.630;18.822;2023-04-25T15:40:05;5.53;;;1.90;;
53927;SDS011;39837;47.630;18.822;2023-04-25T15:42:57;1.88;;;1.77;;
53927;SDS011;39837;47.630;18.822;2023-04-25T15:45:42;2.10;;;2.00;;
53927;SDS011;39837;47.630;18.822;2023-04-25T15:48:26;1.75;;;1.75;;
53927;SDS011;39837;47.630;18.822;2023-04-25T15:51:10;1.38;;;1.38;;
53927;SDS011;39837;47.630;18.822;2023-04-25T15:53:54;2.72;;;2.22;;
53927;SDS011;39837;47.630;18.822;2023-04-25T15:56:39;1.65;;;1.65;;
53927;SDS011;39837;47.630;18.822;2023-04-25T15:59:23;1.98;;;1.95;;
53927;SDS011;39837;47.630;18.822;2023-04-25T16:02:08;1.95;;;1.88;;
53927;SDS011;39837;47.630;18.822;2023-04-25T16:04:52;5.38;;;2.70;;
53927;SDS011;39837;47.630;18.822;2023-04-25T16:07:36;3.15;;;2.85;;
53927;SDS011;39837;47.630;18.822;2023-04-25T16:10:21;2.08;;;1.98;;
53927;SDS011;39837;47.630;18.822;2023-04-25T16:13:05;2.33;;;2.22;;
53927;SDS011;39837;47.630;18.822;2023-04-25T16:15:49;2.60;;;2.50;;
53927;SDS011;39837;47.630;18.822;2023-04-25T16:18:33;2.03;;;1.92;;
53927;SDS011;39837;47.630;18.822;2023-04-25T16:21:17;2.78;;;2.58;;